Time;durP1;ratioP1;P1;durP2;ratioP2;P2;SDS_P1;SDS_P2;PMS_P1;PMS_P2;Temp;Humidity;BMP_temperature;BMP_pressure;BME280_temperature;BME280_humidity;BME280_pressure;Samples;Min_cycle;Max_cycle;Signal;HPM_P1;HPM_P2
2022/08/30 00:01:08;;;;;;;;;2.33;2.33;;;;;;;;5073501;28;45633;-67
2022/08/30 00:03:37;;;;;;;;;3.67;3.67;;;;;;;;5074900;28;45496;-68
2022/08/30 00:06:04;;;;;;;;;3.33;2.67;;;;;;;;5052293;28;47191;-66
2022/08/30 00:08:30;;;;;;;;;2.00;2.00;;;;;;;;5065586;28;45389;-69
2022/08/30 00:10:55;;;;;;;;;5.00;3.00;;;;;;;;5071866;28;45610;-69
2022/08/30 00:13:21;;;;;;;;;3.00;3.00;;;;;;;;5074998;28;45532;-68
2022/08/30 00:15:47;;;;;;;;;2.00;2.00;;;;;;;;5075083;28;45471;-68
2022/08/30 00:18:14;;;;;;;;;3.67;2.00;;;;;;;;5074993;28;45847;-66
2022/08/30 00:20:39;;;;;;;;;5.33;4.00;;;;;;;;5075185;28;45412;-67
2022/08/30 00:23:05;;;;;;;;;4.33;4.00;;;;;;;;5074562;28;45511;-66
2022/08/30 00:25:30;;;;;;;;;5.00;3.00;;;;;;;;5074784;28;46215;-66
2022/08/30 00:27:55;;;;;;;;;2.00;1.00;;;;;;;;5074761;28;45787;-69
2022/08/30 00:30:21;;;;;;;;;3.00;1.33;;;;;;;;5075212;28;45471;-68
2022/08/30 00:32:46;;;;;;;;;3.00;2.00;;;;;;;;5055586;28;45830;-68
2022/08/30 00:35:15;;;;;;;;;4.33;3.00;;;;;;;;5075121;28;46261;-68
2022/08/30 00:37:41;;;;;;;;;2.67;2.67;;;;;;;;5075239;28;45249;-68
2022/08/30 00:40:08;;;;;;;;;5.67;3.33;;;;;;;;5075012;28;45427;-69
2022/08/30 00:42:34;;;;;;;;;4.00;2.67;;;;;;;;5056848;28;45808;-69
2022/08/30 00:44:59;;;;;;;;;4.00;4.00;;;;;;;;5074737;28;46335;-67
2022/08/30 00:47:24;;;;;;;;;4.00;4.00;;;;;;;;5056698;28;46005;-67
2022/08/30 00:49:52;;;;;;;;;6.00;3.00;;;;;;;;5074457;28;45452;-67
2022/08/30 00:52:17;;;;;;;;;3.00;3.00;;;;;;;;5074557;28;46265;-67
2022/08/30 00:54:44;;;;;;;;;4.00;4.00;;;;;;;;5074667;28;46100;-67
2022/08/30 00:57:11;;;;;;;;;4.00;4.00;;;;;;;;5056102;28;45876;-67
2022/08/30 00:59:37;;;;;;;;;3.33;3.00;;;;;;;;5074711;28;45666;-66
2022/08/30 01:02:03;;;;;;;;;7.00;3.67;;;;;;;;5072664;28;45583;-64
2022/08/30 01:04:28;;;;;;;;;6.00;4.00;;;;;;;;5073942;28;46529;-66
2022/08/30 01:06:55;;;;;;;;;4.33;4.00;;;;;;;;5066104;28;45422;-65
2022/08/30 01:09:21;;;;;;;;;4.00;3.00;;;;;;;;5038516;28;46045;-66
2022/08/30 01:11:46;;;;;;;;;3.67;2.00;;;;;;;;5064591;28;45459;-68
2022/08/30 01:14:12;;;;;;;;;5.00;3.67;;;;;;;;5057911;28;46946;-67
2022/08/30 01:16:38;;;;;;;;;6.67;3.00;;;;;;;;5065409;28;45354;-68
2022/08/30 01:19:08;;;;;;;;;3.67;2.00;;;;;;;;5054584;28;45726;-67
2022/08/30 01:21:40;;;;;;;;;3.00;3.00;;;;;;;;5056195;28;46146;-66
2022/08/30 01:24:06;;;;;;;;;6.67;3.67;;;;;;;;5072697;28;46159;-67
2022/08/30 01:26:32;;;;;;;;;6.00;3.67;;;;;;;;5069186;28;45635;-66
2022/08/30 01:29:01;;;;;;;;;3.33;1.67;;;;;;;;5054875;28;45314;-66
2022/08/30 01:31:26;;;;;;;;;8.33;4.67;;;;;;;;5062923;28;45736;-66
2022/08/30 01:33:52;;;;;;;;;3.67;2.33;;;;;;;;5055396;28;47048;-67
2022/08/30 01:36:18;;;;;;;;;3.00;3.00;;;;;;;;5063335;28;45436;-67
2022/08/30 01:38:46;;;;;;;;;3.00;3.00;;;;;;;;5056506;28;45354;-67
2022/08/30 01:41:11;;;;;;;;;4.33;3.67;;;;;;;;5073704;28;45466;-67
2022/08/30 01:43:37;;;;;;;;;5.00;3.00;;;;;;;;5073954;28;45578;-69
2022/08/30 01:46:02;;;;;;;;;8.00;4.00;;;;;;;;5072019;28;45621;-67
2022/08/30 01:48:27;;;;;;;;;3.67;3.33;;;;;;;;5064001;28;45547;-68
2022/08/30 01:50:53;;;;;;;;;4.00;2.00;;;;;;;;5067041;28;45632;-68
2022/08/30 01:53:20;;;;;;;;;3.67;3.67;;;;;;;;5073118;28;45815;-68
2022/08/30 01:55:45;;;;;;;;;4.00;2.00;;;;;;;;5054882;28;45368;-68
2022/08/30 01:58:11;;;;;;;;;6.00;4.33;;;;;;;;5073182;28;45625;-67
2022/08/30 02:00:37;;;;;;;;;3.33;2.33;;;;;;;;5055367;28;47491;-67
2022/08/30 02:03:02;;;;;;;;;4.67;2.33;;;;;;;;5049291;28;46930;-67
2022/08/30 02:05:28;;;;;;;;;5.00;3.67;;;;;;;;5071795;28;45650;-67
2022/08/30 02:07:53;;;;;;;;;2.67;1.67;;;;;;;;5100003;22;45689;-68
2022/08/30 02:10:19;;;;;;;;;4.00;4.00;;;;;;;;5054400;27;45702;-66
2022/08/30 02:12:46;;;;;;;;;3.00;2.00;;;;;;;;5059642;28;46440;-65
2022/08/30 02:15:12;;;;;;;;;3.67;3.00;;;;;;;;5068119;28;45342;-69
2022/08/30 02:17:37;;;;;;;;;4.33;3.33;;;;;;;;5055147;28;45354;-66
2022/08/30 02:20:03;;;;;;;;;5.00;3.00;;;;;;;;5072520;28;45536;-64
2022/08/30 02:22:28;;;;;;;;;6.67;4.33;;;;;;;;5072850;28;45749;-66
2022/08/30 02:24:54;;;;;;;;;3.00;3.00;;;;;;;;5065055;28;45670;-67
2022/08/30 02:27:19;;;;;;;;;8.00;4.00;;;;;;;;5072585;28;45424;-66
2022/08/30 02:29:44;;;;;;;;;8.00;5.00;;;;;;;;5064445;28;45871;-66
2022/08/30 02:32:10;;;;;;;;;3.33;3.00;;;;;;;;5072263;28;46177;-65
2022/08/30 02:34:35;;;;;;;;;3.33;3.33;;;;;;;;5071129;28;45280;-66
2022/08/30 02:37:00;;;;;;;;;6.67;3.67;;;;;;;;5073346;28;45815;-68
2022/08/30 02:39:26;;;;;;;;;4.67;3.00;;;;;;;;5072554;28;45821;-66
2022/08/30 02:41:51;;;;;;;;;8.33;5.00;;;;;;;;5072322;27;45368;-66
2022/08/30 02:44:16;;;;;;;;;7.00;5.33;;;;;;;;5053844;28;45632;-67
2022/08/30 02:46:41;;;;;;;;;4.67;4.33;;;;;;;;5053368;28;45381;-69
2022/08/30 02:49:07;;;;;;;;;7.33;6.00;;;;;;;;5067244;27;45659;-68
2022/08/30 02:51:33;;;;;;;;;8.00;5.00;;;;;;;;5053947;28;45908;-68
2022/08/30 02:53:58;;;;;;;;;6.67;5.33;;;;;;;;5056477;28;45362;-70
2022/08/30 02:56:23;;;;;;;;;4.00;4.00;;;;;;;;5058329;28;45365;-68
2022/08/30 02:58:48;;;;;;;;;4.00;3.00;;;;;;;;5066406;28;45351;-67
2022/08/30 03:01:15;;;;;;;;;5.00;4.00;;;;;;;;5053405;27;45408;-67
2022/08/30 03:03:41;;;;;;;;;4.33;3.33;;;;;;;;5055799;27;45490;-68
2022/08/30 03:06:09;;;;;;;;;6.00;3.33;;;;;;;;5066210;27;45763;-69
2022/08/30 03:08:34;;;;;;;;;6.33;6.00;;;;;;;;5061428;27;45313;-71
2022/08/30 03:10:59;;;;;;;;;5.33;4.33;;;;;;;;5069765;27;45917;-66
2022/08/30 03:13:25;;;;;;;;;5.67;4.33;;;;;;;;5071480;28;45627;-69
2022/08/30 03:15:50;;;;;;;;;4.00;4.00;;;;;;;;5064450;28;45687;-67
2022/08/30 03:18:16;;;;;;;;;5.00;3.33;;;;;;;;5065531;28;45717;-65
2022/08/30 03:20:42;;;;;;;;;5.00;5.00;;;;;;;;5037642;28;46951;-65
2022/08/30 03:23:07;;;;;;;;;6.00;4.33;;;;;;;;5037951;28;45806;-67
2022/08/30 03:25:32;;;;;;;;;7.33;5.33;;;;;;;;5056052;28;45649;-67
2022/08/30 03:27:58;;;;;;;;;9.00;5.00;;;;;;;;5056028;28;45503;-65
2022/08/30 03:30:24;;;;;;;;;4.00;4.00;;;;;;;;5059063;27;46657;-66
2022/08/30 03:32:49;;;;;;;;;6.67;5.00;;;;;;;;5060558;28;45435;-66
2022/08/30 03:35:16;;;;;;;;;8.33;4.33;;;;;;;;5062845;27;45341;-68
2022/08/30 03:37:41;;;;;;;;;10.33;6.33;;;;;;;;5069430;27;45752;-67
2022/08/30 03:40:07;;;;;;;;;6.67;5.33;;;;;;;;5043847;28;47386;-68
2022/08/30 03:42:33;;;;;;;;;4.67;4.33;;;;;;;;5075662;28;45407;-70
2022/08/30 03:45:01;;;;;;;;;8.00;6.33;;;;;;;;5045494;28;45682;-70
2022/08/30 03:47:26;;;;;;;;;8.00;8.00;;;;;;;;5052560;28;46526;-70
2022/08/30 03:49:51;;;;;;;;;7.67;7.67;;;;;;;;5054620;28;46642;-68
2022/08/30 03:52:16;;;;;;;;;8.00;6.00;;;;;;;;5057594;28;45519;-67
2022/08/30 03:54:42;;;;;;;;;7.33;7.33;;;;;;;;5076510;28;45481;-68
2022/08/30 03:57:07;;;;;;;;;7.33;6.33;;;;;;;;5072446;28;45874;-68
2022/08/30 03:59:32;;;;;;;;;11.33;7.67;;;;;;;;5072162;28;45958;-69
2022/08/30 04:01:58;;;;;;;;;6.00;6.00;;;;;;;;5064503;28;45804;-70
2022/08/30 04:04:23;;;;;;;;;6.33;3.00;;;;;;;;5074123;28;45699;-69
2022/08/30 04:06:48;;;;;;;;;8.33;6.33;;;;;;;;5067260;28;45375;-69
2022/08/30 04:09:14;;;;;;;;;8.33;4.33;;;;;;;;5066039;27;46007;-70
2022/08/30 04:11:39;;;;;;;;;8.00;5.67;;;;;;;;5066791;27;45785;-69
2022/08/30 04:14:04;;;;;;;;;7.67;4.33;;;;;;;;5073069;27;45699;-69
2022/08/30 04:16:30;;;;;;;;;5.33;5.33;;;;;;;;5074042;27;45427;-68
2022/08/30 04:18:55;;;;;;;;;9.33;7.00;;;;;;;;5068507;27;46570;-69
2022/08/30 04:21:20;;;;;;;;;7.33;4.67;;;;;;;;5063523;27;45852;-69
2022/08/30 04:23:46;;;;;;;;;6.00;6.00;;;;;;;;5061219;27;45859;-70
2022/08/30 04:26:11;;;;;;;;;5.33;4.33;;;;;;;;5042337;27;46624;-69
2022/08/30 04:28:36;;;;;;;;;7.33;5.67;;;;;;;;5057665;27;46321;-68
2022/08/30 04:31:13;;;;;;;;;5.00;3.67;;;;;;;;5055337;27;45582;-66
2022/08/30 04:33:39;;;;;;;;;4.00;4.00;;;;;;;;5053728;27;45759;-67
2022/08/30 04:36:05;;;;;;;;;7.67;7.67;;;;;;;;5040746;27;45712;-69
2022/08/30 04:38:30;;;;;;;;;5.00;5.00;;;;;;;;5054679;27;47645;-67
2022/08/30 04:40:55;;;;;;;;;3.33;3.33;;;;;;;;5055796;27;45626;-67
2022/08/30 04:43:21;;;;;;;;;8.33;5.00;;;;;;;;5060266;27;45651;-66
2022/08/30 04:45:46;;;;;;;;;6.00;5.33;;;;;;;;5065929;27;45627;-69
2022/08/30 04:48:12;;;;;;;;;5.00;5.00;;;;;;;;5068529;27;45521;-68
2022/08/30 04:50:37;;;;;;;;;4.33;4.00;;;;;;;;5062345;28;45438;-68
2022/08/30 04:53:02;;;;;;;;;6.33;4.33;;;;;;;;5061965;27;45729;-66
2022/08/30 04:55:28;;;;;;;;;7.67;5.33;;;;;;;;5071048;28;45488;-67
2022/08/30 04:57:53;;;;;;;;;11.33;7.67;;;;;;;;5072248;28;45785;-67
2022/08/30 05:00:21;;;;;;;;;5.67;4.67;;;;;;;;5074049;27;45772;-67
2022/08/30 05:02:47;;;;;;;;;7.67;5.67;;;;;;;;5054843;28;45665;-67
2022/08/30 05:07:57;;;;;;;;;8.00;7.33;;;;;;;;5070016;27;45785;-67
2022/08/30 05:10:22;;;;;;;;;5.67;5.67;;;;;;;;5061368;27;46453;-65
2022/08/30 05:12:48;;;;;;;;;6.67;6.67;;;;;;;;5073796;27;45696;-68
2022/08/30 05:15:14;;;;;;;;;7.33;5.67;;;;;;;;5072137;28;45935;-69
2022/08/30 05:17:39;;;;;;;;;6.33;5.00;;;;;;;;5072256;28;46397;-68
2022/08/30 05:20:06;;;;;;;;;7.00;5.00;;;;;;;;5064917;27;45313;-71
2022/08/30 05:22:32;;;;;;;;;4.33;4.33;;;;;;;;5050651;28;45330;-69
2022/08/30 05:24:58;;;;;;;;;7.67;5.33;;;;;;;;5074907;27;45419;-68
2022/08/30 05:27:23;;;;;;;;;14.33;7.33;;;;;;;;5070489;27;45424;-70
2022/08/30 05:29:49;;;;;;;;;7.00;6.00;;;;;;;;5075949;27;45337;-67
2022/08/30 05:32:14;;;;;;;;;9.33;7.67;;;;;;;;5071875;27;45408;-69
2022/08/30 05:34:39;;;;;;;;;9.00;8.00;;;;;;;;5069785;27;45965;-68
2022/08/30 05:37:04;;;;;;;;;8.00;7.33;;;;;;;;5079424;27;46792;-70
2022/08/30 05:39:30;;;;;;;;;3.33;3.33;;;;;;;;5060499;27;45627;-67
2022/08/30 05:41:56;;;;;;;;;5.00;5.00;;;;;;;;5052127;27;45280;-68
2022/08/30 05:44:21;;;;;;;;;6.00;4.33;;;;;;;;5048230;27;46566;-69
2022/08/30 05:46:47;;;;;;;;;12.67;5.67;;;;;;;;5078539;27;45724;-68
2022/08/30 05:49:13;;;;;;;;;11.00;8.67;;;;;;;;5074367;27;45590;-69
2022/08/30 05:51:38;;;;;;;;;6.67;5.00;;;;;;;;5061160;27;46074;-71
2022/08/30 05:54:05;;;;;;;;;6.00;6.00;;;;;;;;5054281;28;46398;-70
2022/08/30 05:56:31;;;;;;;;;7.33;5.67;;;;;;;;5065839;27;45408;-70
2022/08/30 05:58:57;;;;;;;;;9.33;6.67;;;;;;;;5058116;27;45628;-67
2022/08/30 06:01:23;;;;;;;;;6.00;6.00;;;;;;;;5058597;27;45825;-67
2022/08/30 06:03:49;;;;;;;;;6.00;4.00;;;;;;;;5067787;27;45648;-69
2022/08/30 06:06:14;;;;;;;;;6.67;6.33;;;;;;;;5040184;28;46929;-66
2022/08/30 06:08:41;;;;;;;;;8.33;5.33;;;;;;;;5058407;27;45721;-67
2022/08/30 06:11:06;;;;;;;;;8.67;6.00;;;;;;;;5051659;27;45861;-67
2022/08/30 06:13:32;;;;;;;;;13.33;9.00;;;;;;;;5065207;27;45435;-67
2022/08/30 06:15:57;;;;;;;;;9.33;6.00;;;;;;;;5062792;28;45690;-68
2022/08/30 06:18:22;;;;;;;;;7.67;5.00;;;;;;;;5061154;27;45551;-67
2022/08/30 06:20:47;;;;;;;;;7.67;5.00;;;;;;;;5058564;27;45354;-67
2022/08/30 06:23:13;;;;;;;;;6.67;5.67;;;;;;;;5061317;27;46262;-68
2022/08/30 06:25:39;;;;;;;;;4.67;4.67;;;;;;;;5039476;27;46886;-68
2022/08/30 06:28:05;;;;;;;;;5.67;5.33;;;;;;;;5061777;28;45839;-69
2022/08/30 06:30:31;;;;;;;;;4.00;3.00;;;;;;;;5070774;28;45424;-68
2022/08/30 06:32:56;;;;;;;;;5.00;5.00;;;;;;;;5065225;27;45746;-68
2022/08/30 06:35:21;;;;;;;;;4.33;4.33;;;;;;;;5070486;28;45745;-69
2022/08/30 06:37:46;;;;;;;;;5.00;5.00;;;;;;;;5058480;27;45907;-67
2022/08/30 06:40:12;;;;;;;;;6.00;5.00;;;;;;;;5060257;28;45762;-67
2022/08/30 06:42:38;;;;;;;;;7.00;4.33;;;;;;;;5059588;27;45952;-68
2022/08/30 06:45:04;;;;;;;;;9.33;6.67;;;;;;;;5060699;28;45503;-67
2022/08/30 06:47:29;;;;;;;;;6.00;4.33;;;;;;;;5059287;28;46321;-66
2022/08/30 06:49:56;;;;;;;;;4.33;4.33;;;;;;;;5063661;27;45606;-66
2022/08/30 06:52:22;;;;;;;;;8.67;7.33;;;;;;;;5067862;27;45715;-68
2022/08/30 06:54:48;;;;;;;;;4.67;3.33;;;;;;;;5076902;28;46225;-67
2022/08/30 06:57:14;;;;;;;;;7.67;6.33;;;;;;;;5052133;28;45423;-68
2022/08/30 06:59:39;;;;;;;;;9.00;6.00;;;;;;;;5074830;27;46287;-67
2022/08/30 07:02:05;;;;;;;;;8.33;5.33;;;;;;;;5061302;28;46340;-70
2022/08/30 07:04:30;;;;;;;;;13.67;6.00;;;;;;;;5076770;27;46586;-69
2022/08/30 07:06:55;;;;;;;;;4.00;4.00;;;;;;;;5056756;28;45801;-70
2022/08/30 07:09:21;;;;;;;;;6.33;6.33;;;;;;;;5073096;28;45334;-70
2022/08/30 07:11:46;;;;;;;;;5.00;4.67;;;;;;;;5074160;27;45321;-71
2022/08/30 07:14:11;;;;;;;;;6.33;5.33;;;;;;;;5079466;27;45775;-72
2022/08/30 07:16:37;;;;;;;;;6.00;5.00;;;;;;;;5072474;28;45542;-70
2022/08/30 07:19:03;;;;;;;;;6.00;6.00;;;;;;;;5073762;27;45654;-70
2022/08/30 07:21:31;;;;;;;;;6.67;6.33;;;;;;;;5070674;27;45723;-70
2022/08/30 07:23:57;;;;;;;;;9.50;5.50;;;;;;;;5070357;28;46688;-69
2022/08/30 07:26:24;;;;;;;;;7.25;5.00;;;;;;;;5067512;27;45578;-71
2022/08/30 07:28:50;;;;;;;;;4.50;4.00;;;;;;;;5067509;27;45664;-66
2022/08/30 07:31:17;;;;;;;;;5.50;5.25;;;;;;;;5074620;27;45803;-68
2022/08/30 07:33:42;;;;;;;;;7.00;6.00;;;;;;;;5062170;28;46896;-68
2022/08/30 07:36:08;;;;;;;;;6.00;5.00;;;;;;;;5078686;27;45697;-69
2022/08/30 07:38:34;;;;;;;;;6.00;6.00;;;;;;;;5053931;28;45732;-70
2022/08/30 07:41:00;;;;;;;;;5.75;5.75;;;;;;;;5061751;28;45927;-68
2022/08/30 07:43:29;;;;;;;;;5.25;4.00;;;;;;;;5078121;28;46086;-68
2022/08/30 07:45:56;;;;;;;;;7.50;7.25;;;;;;;;5067477;27;45999;-68
2022/08/30 07:48:22;;;;;;;;;5.50;5.50;;;;;;;;5067476;28;45616;-69
2022/08/30 07:50:47;;;;;;;;;6.25;5.00;;;;;;;;5072699;28;45631;-69
2022/08/30 07:53:12;;;;;;;;;9.33;6.00;;;;;;;;5076175;27;45578;-69
2022/08/30 07:55:38;;;;;;;;;8.00;5.00;;;;;;;;5073380;27;46026;-70
2022/08/30 07:58:03;;;;;;;;;12.25;9.25;;;;;;;;5058380;28;45458;-71
2022/08/30 08:00:29;;;;;;;;;3.00;1.00;;;;;;;;5055981;28;46180;-67
2022/08/30 08:02:54;;;;;;;;;3.33;2.67;;;;;;;;5074779;28;45456;-69
2022/08/30 08:05:20;;;;;;;;;6.67;5.67;;;;;;;;5070528;27;45737;-70
2022/08/30 08:07:45;;;;;;;;;5.67;4.67;;;;;;;;5050154;27;45410;-69
2022/08/30 08:10:12;;;;;;;;;4.75;3.25;;;;;;;;5073346;28;45872;-70
2022/08/30 08:12:37;;;;;;;;;6.00;5.67;;;;;;;;5071970;28;45687;-69
2022/08/30 08:15:03;;;;;;;;;7.67;6.00;;;;;;;;5077560;28;45470;-71
2022/08/30 08:17:28;;;;;;;;;5.67;3.33;;;;;;;;5075527;27;45735;-71
2022/08/30 08:19:54;;;;;;;;;10.33;6.67;;;;;;;;5077597;28;45500;-71
2022/08/30 08:22:19;;;;;;;;;6.33;6.33;;;;;;;;5068991;28;46048;-69
2022/08/30 08:24:45;;;;;;;;;7.00;5.00;;;;;;;;5077394;28;45381;-67
2022/08/30 08:27:10;;;;;;;;;8.00;6.00;;;;;;;;5065262;28;45620;-70
2022/08/30 08:29:36;;;;;;;;;6.67;6.00;;;;;;;;5059597;28;45329;-72
2022/08/30 08:32:01;;;;;;;;;5.00;4.33;;;;;;;;5053028;27;47253;-71
2022/08/30 08:34:26;;;;;;;;;5.67;5.67;;;;;;;;5043958;28;45441;-69
2022/08/30 08:36:52;;;;;;;;;8.33;7.00;;;;;;;;5074702;27;45388;-70
2022/08/30 08:39:18;;;;;;;;;10.00;7.00;;;;;;;;5072654;28;46039;-70
2022/08/30 08:41:57;;;;;;;;;6.33;6.00;;;;;;;;5061085;28;47132;-70
2022/08/30 08:44:32;;;;;;;;;8.00;7.33;;;;;;;;5078270;28;45564;-72
2022/08/30 08:46:57;;;;;;;;;6.50;4.25;;;;;;;;5077543;28;45415;-69
2022/08/30 08:49:22;;;;;;;;;7.00;5.00;;;;;;;;5063664;28;45674;-69
2022/08/30 08:54:41;;;;;;;;;10.67;10.67;;;;;;;;5066114;27;45608;-70
2022/08/30 08:57:08;;;;;;;;;9.00;6.25;;;;;;;;5064523;27;45759;-71
2022/08/30 08:59:33;;;;;;;;;14.00;11.67;;;;;;;;5069507;28;46046;-70
2022/08/30 09:02:01;;;;;;;;;8.00;7.00;;;;;;;;5070184;28;46154;-68
2022/08/30 09:04:31;;;;;;;;;4.75;4.00;;;;;;;;5069532;27;45667;-70
2022/08/30 09:06:58;;;;;;;;;7.00;6.75;;;;;;;;5067509;27;45438;-70
2022/08/30 09:09:28;;;;;;;;;7.50;6.50;;;;;;;;5067424;27;45468;-70
2022/08/30 09:11:54;;;;;;;;;10.25;9.50;;;;;;;;5065846;28;45591;-69
2022/08/30 09:14:21;;;;;;;;;9.75;7.75;;;;;;;;5065907;28;45333;-71
2022/08/30 09:16:46;;;;;;;;;12.50;9.00;;;;;;;;5059662;28;45338;-71
2022/08/30 09:19:32;;;;;;;;;5.50;5.50;;;;;;;;5064693;28;45327;-73
2022/08/30 09:22:13;;;;;;;;;4.00;4.00;;;;;;;;5050882;28;46220;-74
2022/08/30 09:24:59;;;;;;;;;5.00;3.67;;;;;;;;5060147;28;45641;-71
2022/08/30 09:27:26;;;;;;;;;3.25;3.00;;;;;;;;5061915;27;45284;-71
2022/08/30 09:29:55;;;;;;;;;8.00;5.75;;;;;;;;5065490;28;45716;-70
2022/08/30 09:32:30;;;;;;;;;5.25;4.25;;;;;;;;5073311;28;46351;-70
2022/08/30 09:34:57;;;;;;;;;5.75;5.50;;;;;;;;5064781;28;45824;-69
2022/08/30 09:37:28;;;;;;;;;6.50;6.50;;;;;;;;5065141;27;45663;-66
2022/08/30 09:39:53;;;;;;;;;7.50;6.00;;;;;;;;5065388;27;45481;-68
2022/08/30 09:42:22;;;;;;;;;4.75;4.75;;;;;;;;5061928;28;45541;-69
2022/08/30 09:44:47;;;;;;;;;4.50;4.50;;;;;;;;5063911;27;45296;-71
2022/08/30 09:47:27;;;;;;;;;5.50;4.25;;;;;;;;5068887;28;45632;-71
2022/08/30 09:50:07;;;;;;;;;6.25;5.00;;;;;;;;5064918;28;45927;-71
2022/08/30 09:52:32;;;;;;;;;6.00;5.00;;;;;;;;5067561;27;46270;-71
2022/08/30 09:54:57;;;;;;;;;4.75;4.75;;;;;;;;5046692;28;45596;-73
2022/08/30 09:57:29;;;;;;;;;6.75;5.00;;;;;;;;5060957;28;45635;-68
2022/08/30 09:59:59;;;;;;;;;7.00;6.25;;;;;;;;5071400;27;45897;-77
2022/08/30 10:02:34;;;;;;;;;7.50;6.25;;;;;;;;5065599;28;45458;-70
2022/08/30 10:04:59;;;;;;;;;6.33;6.00;;;;;;;;5058136;27;45364;-69
2022/08/30 10:07:35;;;;;;;;;6.00;5.50;;;;;;;;5070500;28;45591;-71
2022/08/30 10:10:15;;;;;;;;;7.50;5.00;;;;;;;;5069934;27;45261;-71
2022/08/30 10:12:43;;;;;;;;;6.25;5.50;;;;;;;;5061184;28;45706;-70
2022/08/30 10:15:19;;;;;;;;;4.67;4.67;;;;;;;;5067647;27;45738;-70
2022/08/30 10:17:50;;;;;;;;;6.00;6.00;;;;;;;;5069683;27;45574;-70
2022/08/30 10:20:24;;;;;;;;;7.33;7.33;;;;;;;;5068941;27;45377;-71
2022/08/30 10:22:55;;;;;;;;;9.67;8.67;;;;;;;;5073191;28;45408;-69
2022/08/30 10:25:30;;;;;;;;;8.00;8.00;;;;;;;;5067749;28;45717;-71
2022/08/30 10:28:02;;;;;;;;;6.00;5.00;;;;;;;;5066047;28;45863;-69
2022/08/30 10:30:30;;;;;;;;;5.00;5.00;;;;;;;;5069918;27;45431;-70
2022/08/30 10:33:03;;;;;;;;;6.50;5.25;;;;;;;;5056063;27;46617;-69
2022/08/30 10:35:31;;;;;;;;;6.50;5.25;;;;;;;;5071314;28;45736;-69
2022/08/30 10:38:03;;;;;;;;;5.75;5.00;;;;;;;;5069613;27;45935;-69
2022/08/30 10:43:33;;;;;;;;;8.75;7.75;;;;;;;;5060710;28;45856;-71
2022/08/30 10:46:01;;;;;;;;;7.00;6.75;;;;;;;;5062733;27;45365;-68
2022/08/30 10:48:30;;;;;;;;;7.00;6.25;;;;;;;;5069468;27;45522;-70
2022/08/30 10:50:58;;;;;;;;;5.00;5.00;;;;;;;;5060176;27;45823;-72
2022/08/30 10:53:41;;;;;;;;;4.00;4.00;;;;;;;;5062739;27;45378;-71
2022/08/30 10:56:12;;;;;;;;;7.00;6.00;;;;;;;;5061899;27;45790;-68
2022/08/30 10:58:38;;;;;;;;;5.25;5.00;;;;;;;;5058758;28;46010;-67
2022/08/30 11:01:13;;;;;;;;;2.75;2.75;;;;;;;;5052843;28;47194;-68
2022/08/30 11:03:45;;;;;;;;;4.00;4.00;;;;;;;;5062962;27;45842;-70
2022/08/30 11:06:10;;;;;;;;;7.00;6.00;;;;;;;;5058732;28;45649;-66
2022/08/30 11:08:38;;;;;;;;;5.75;5.25;;;;;;;;5058006;27;45767;-68
2022/08/30 11:11:04;;;;;;;;;4.50;4.50;;;;;;;;5061636;27;45463;-70
2022/08/30 11:13:30;;;;;;;;;7.25;7.00;;;;;;;;5048736;27;47071;-68
2022/08/30 11:16:07;;;;;;;;;6.00;6.00;;;;;;;;5066201;28;44925;-69
2022/08/30 11:18:40;;;;;;;;;7.25;6.25;;;;;;;;5050079;28;45997;-68
2022/08/30 11:21:17;;;;;;;;;9.33;5.33;;;;;;;;5063883;28;45709;-68
2022/08/30 11:23:56;;;;;;;;;5.75;5.75;;;;;;;;5062518;27;47344;-68
2022/08/30 11:26:48;;;;;;;;;7.25;7.00;;;;;;;;5067939;27;45932;-66
2022/08/30 11:29:25;;;;;;;;;10.00;8.75;;;;;;;;5061335;28;45678;-67
2022/08/30 11:31:51;;;;;;;;;4.50;4.50;;;;;;;;5063957;28;45768;-67
2022/08/30 11:34:37;;;;;;;;;5.00;5.00;;;;;;;;5041511;28;47743;-65
2022/08/30 11:37:02;;;;;;;;;7.25;6.25;;;;;;;;5047043;27;45745;-68
2022/08/30 11:39:50;;;;;;;;;7.25;5.25;;;;;;;;5063426;28;45556;-67
2022/08/30 11:42:28;;;;;;;;;6.25;6.25;;;;;;;;5043823;27;47465;-66
2022/08/30 11:45:13;;;;;;;;;8.00;7.00;;;;;;;;5053113;27;45779;-67
2022/08/30 11:47:42;;;;;;;;;9.33;5.33;;;;;;;;5048984;27;45805;-67
2022/08/30 11:50:30;;;;;;;;;7.00;6.00;;;;;;;;5057478;28;45766;-67
2022/08/30 11:53:07;;;;;;;;;7.00;7.00;;;;;;;;5058950;27;45816;-67
2022/08/30 11:55:51;;;;;;;;;8.00;6.50;;;;;;;;5066627;27;46446;-66
2022/08/30 11:58:19;;;;;;;;;5.67;5.67;;;;;;;;5065064;27;45259;-65
2022/08/30 12:00:46;;;;;;;;;11.67;9.00;;;;;;;;5067748;27;45885;-65
2022/08/30 12:03:14;;;;;;;;;6.00;5.50;;;;;;;;5064857;27;45536;-66
2022/08/30 12:05:48;;;;;;;;;12.00;12.00;;;;;;;;5058072;27;46518;-66
2022/08/30 12:08:19;;;;;;;;;6.00;6.00;;;;;;;;5060294;27;45511;-66
2022/08/30 12:10:54;;;;;;;;;7.33;5.00;;;;;;;;5068464;27;45622;-67
2022/08/30 12:13:41;;;;;;;;;5.00;5.00;;;;;;;;5066812;28;45485;-65
2022/08/30 12:16:07;;;;;;;;;5.67;5.00;;;;;;;;5067398;27;46794;-66
2022/08/30 12:18:44;;;;;;;;;4.67;4.67;;;;;;;;5051532;27;45883;-67
2022/08/30 12:21:22;;;;;;;;;5.33;5.33;;;;;;;;5065662;28;45786;-67
2022/08/30 12:23:50;;;;;;;;;6.00;6.00;;;;;;;;5058495;28;45804;-64
2022/08/30 12:26:24;;;;;;;;;6.00;6.00;;;;;;;;5070243;28;46225;-67
2022/08/30 12:29:10;;;;;;;;;19.67;16.00;;;;;;;;5065049;27;45537;-65
2022/08/30 12:31:40;;;;;;;;;9.33;6.33;;;;;;;;5051437;28;45591;-65
2022/08/30 12:34:06;;;;;;;;;8.00;8.00;;;;;;;;5047356;28;47107;-64
2022/08/30 12:36:31;;;;;;;;;6.33;5.33;;;;;;;;5065359;27;45704;-65
2022/08/30 12:39:11;;;;;;;;;8.00;7.00;;;;;;;;5060745;27;45839;-65
2022/08/30 12:41:37;;;;;;;;;5.67;5.67;;;;;;;;5070058;27;45744;-66
2022/08/30 12:44:03;;;;;;;;;6.00;6.00;;;;;;;;5066160;27;46483;-66
2022/08/30 12:46:29;;;;;;;;;7.00;6.00;;;;;;;;5065634;28;45637;-66
2022/08/30 12:48:54;;;;;;;;;8.67;7.00;;;;;;;;5067411;27;45432;-65
2022/08/30 12:51:27;;;;;;;;;6.25;6.25;;;;;;;;5068621;27;45400;-65
2022/08/30 12:54:01;;;;;;;;;7.00;7.00;;;;;;;;5050010;28;48582;-66
2022/08/30 12:56:43;;;;;;;;;7.33;5.67;;;;;;;;5065219;28;48028;-65
2022/08/30 12:59:08;;;;;;;;;6.33;6.33;;;;;;;;5065504;28;45774;-66
2022/08/30 13:01:34;;;;;;;;;7.67;7.67;;;;;;;;5065080;27;45773;-65
2022/08/30 13:04:18;;;;;;;;;8.67;8.67;;;;;;;;5059711;27;45610;-66
2022/08/30 13:06:52;;;;;;;;;8.00;6.33;;;;;;;;5066904;28;45819;-66
2022/08/30 13:09:41;;;;;;;;;9.00;7.00;;;;;;;;5072400;27;45332;-65
2022/08/30 13:12:19;;;;;;;;;12.33;11.67;;;;;;;;5049343;27;45824;-66
2022/08/30 13:14:44;;;;;;;;;7.33;7.33;;;;;;;;5067268;27;45803;-64
2022/08/30 13:17:19;;;;;;;;;9.67;8.00;;;;;;;;5069567;27;45695;-65
2022/08/30 13:19:53;;;;;;;;;11.33;10.00;;;;;;;;5072232;27;45836;-68
2022/08/30 13:22:26;;;;;;;;;7.33;7.00;;;;;;;;5073911;27;45792;-65
2022/08/30 13:24:52;;;;;;;;;9.67;7.33;;;;;;;;5072411;28;47744;-65
2022/08/30 13:27:18;;;;;;;;;7.33;6.67;;;;;;;;5072443;28;45683;-67
2022/08/30 13:29:43;;;;;;;;;8.67;8.00;;;;;;;;5073825;28;45747;-69
2022/08/30 13:32:08;;;;;;;;;10.33;7.00;;;;;;;;5073177;28;45591;-67
2022/08/30 13:34:35;;;;;;;;;9.00;7.33;;;;;;;;5066704;27;45785;-67
2022/08/30 13:37:00;;;;;;;;;8.00;5.33;;;;;;;;5070777;28;46013;-67
2022/08/30 13:39:26;;;;;;;;;8.00;6.67;;;;;;;;5070259;27;45699;-67
2022/08/30 13:41:51;;;;;;;;;8.00;8.00;;;;;;;;5073657;28;45495;-66
2022/08/30 13:44:17;;;;;;;;;12.67;9.00;;;;;;;;5073228;27;45824;-66
2022/08/30 13:46:44;;;;;;;;;4.33;4.33;;;;;;;;5058402;27;46673;-69
2022/08/30 13:49:29;;;;;;;;;7.67;6.33;;;;;;;;5061083;27;45438;-67
2022/08/30 13:51:54;;;;;;;;;5.67;5.00;;;;;;;;5057752;27;45680;-65
2022/08/30 13:54:21;;;;;;;;;9.00;8.00;;;;;;;;5054890;28;45351;-68
2022/08/30 13:56:50;;;;;;;;;6.67;6.67;;;;;;;;5066520;27;45872;-67
2022/08/30 13:59:16;;;;;;;;;9.00;8.00;;;;;;;;5067187;28;45797;-66
2022/08/30 14:01:42;;;;;;;;;5.33;5.33;;;;;;;;5048946;28;45386;-66
2022/08/30 14:04:07;;;;;;;;;6.25;6.25;;;;;;;;5067922;27;45642;-68
2022/08/30 14:06:32;;;;;;;;;6.67;6.67;;;;;;;;5063052;28;45676;-66
2022/08/30 14:08:58;;;;;;;;;6.25;6.25;;;;;;;;5047423;28;45721;-66
2022/08/30 14:11:23;;;;;;;;;9.00;8.00;;;;;;;;5067806;27;45348;-65
2022/08/30 14:13:49;;;;;;;;;5.75;5.75;;;;;;;;5064301;28;45365;-68
2022/08/30 14:16:15;;;;;;;;;5.75;5.25;;;;;;;;5064743;27;46245;-66
2022/08/30 14:18:40;;;;;;;;;7.67;5.67;;;;;;;;5069569;27;45301;-66
2022/08/30 14:21:05;;;;;;;;;7.25;7.00;;;;;;;;5076218;27;45326;-67
2022/08/30 14:23:30;;;;;;;;;3.00;3.00;;;;;;;;5065012;27;45400;-66
2022/08/30 14:25:58;;;;;;;;;8.00;7.00;;;;;;;;5047055;28;47257;-67
2022/08/30 14:28:27;;;;;;;;;6.33;6.33;;;;;;;;5062407;27;45646;-67
2022/08/30 14:30:52;;;;;;;;;7.33;7.00;;;;;;;;5061015;27;45338;-67
2022/08/30 14:33:17;;;;;;;;;8.67;7.33;;;;;;;;5049670;27;46253;-66
2022/08/30 14:35:43;;;;;;;;;7.67;6.00;;;;;;;;5069168;28;45697;-66
2022/08/30 14:38:08;;;;;;;;;8.00;8.00;;;;;;;;5069578;27;45265;-65
2022/08/30 14:40:33;;;;;;;;;6.00;6.00;;;;;;;;5054839;28;45686;-68
2022/08/30 14:42:59;;;;;;;;;4.33;4.33;;;;;;;;5055051;28;47040;-69
2022/08/30 14:45:24;;;;;;;;;6.00;5.00;;;;;;;;5068894;27;45890;-68
2022/08/30 14:47:49;;;;;;;;;9.67;6.67;;;;;;;;5066396;28;45387;-68
2022/08/30 14:50:15;;;;;;;;;7.67;7.67;;;;;;;;5084276;27;45296;-69
2022/08/30 14:52:40;;;;;;;;;8.33;6.33;;;;;;;;5055830;28;45801;-68
2022/08/30 14:55:07;;;;;;;;;6.00;6.00;;;;;;;;5058028;28;45448;-68